sensor_id;sensor_type;location;lat;lon;timestamp;P1;durP1;ratioP1;P2;durP2;ratioP2
73695;SDS011;62000;42.262;12.210;2022-07-18T00:01:57;7.97;;;3.40;;
73695;SDS011;62000;42.262;12.210;2022-07-18T00:04:25;10.70;;;4.45;;
73695;SDS011;62000;42.262;12.210;2022-07-18T00:06:52;8.90;;;4.20;;
73695;SDS011;62000;42.262;12.210;2022-07-18T00:09:19;7.32;;;3.38;;
73695;SDS011;62000;42.262;12.210;2022-07-18T00:11:47;8.70;;;3.90;;
73695;SDS011;62000;42.262;12.210;2022-07-18T00:14:13;11.38;;;4.88;;
73695;SDS011;62000;42.262;12.210;2022-07-18T00:19:06;7.00;;;3.00;;
73695;SDS011;62000;42.262;12.210;2022-07-18T00:23:59;9.75;;;5.10;;
73695;SDS011;62000;42.262;12.210;2022-07-18T00:26:26;7.18;;;3.22;;
73695;SDS011;62000;42.262;12.210;2022-07-18T00:28:52;7.47;;;3.30;;
73695;SDS011;62000;42.262;12.210;2022-07-18T00:31:18;7.93;;;3.50;;
73695;SDS011;62000;42.262;12.210;2022-07-18T00:33:45;5.88;;;3.22;;
73695;SDS011;62000;42.262;12.210;2022-07-18T00:36:11;6.45;;;3.15;;
73695;SDS011;62000;42.262;12.210;2022-07-18T00:38:37;7.80;;;3.50;;
73695;SDS011;62000;42.262;12.210;2022-07-18T00:41:03;5.95;;;3.22;;
73695;SDS011;62000;42.262;12.210;2022-07-18T00:43:30;5.70;;;3.20;;
73695;SDS011;62000;42.262;12.210;2022-07-18T00:45:56;8.75;;;3.33;;
73695;SDS011;62000;42.262;12.210;2022-07-18T00:48:22;7.95;;;3.50;;
73695;SDS011;62000;42.262;12.210;2022-07-18T00:50:49;7.55;;;3.38;;
73695;SDS011;62000;42.262;12.210;2022-07-18T00:53:15;8.15;;;3.33;;
73695;SDS011;62000;42.262;12.210;2022-07-18T00:55:42;6.47;;;3.13;;
73695;SDS011;62000;42.262;12.210;2022-07-18T00:58:12;6.97;;;3.60;;
73695;SDS011;62000;42.262;12.210;2022-07-18T01:00:41;6.82;;;3.17;;
73695;SDS011;62000;42.262;12.210;2022-07-18T01:03:26;6.32;;;3.03;;
73695;SDS011;62000;42.262;12.210;2022-07-18T01:05:53;6.22;;;3.17;;
73695;SDS011;62000;42.262;12.210;2022-07-18T01:08:21;5.75;;;3.25;;
73695;SDS011;62000;42.262;12.210;2022-07-18T01:10:47;7.78;;;3.22;;
73695;SDS011;62000;42.262;12.210;2022-07-18T01:13:13;6.93;;;3.22;;
73695;SDS011;62000;42.262;12.210;2022-07-18T01:15:40;7.88;;;3.63;;
73695;SDS011;62000;42.262;12.210;2022-07-18T01:18:06;6.10;;;3.33;;
73695;SDS011;62000;42.262;12.210;2022-07-18T01:20:32;8.30;;;3.78;;
73695;SDS011;62000;42.262;12.210;2022-07-18T01:22:58;8.48;;;3.53;;
73695;SDS011;62000;42.262;12.210;2022-07-18T01:25:25;7.20;;;4.03;;
73695;SDS011;62000;42.262;12.210;2022-07-18T01:30:17;6.28;;;3.45;;
73695;SDS011;62000;42.262;12.210;2022-07-18T01:32:43;8.13;;;3.85;;
73695;SDS011;62000;42.262;12.210;2022-07-18T01:35:10;6.70;;;3.78;;
73695;SDS011;62000;42.262;12.210;2022-07-18T01:37:36;6.78;;;3.83;;
73695;SDS011;62000;42.262;12.210;2022-07-18T01:40:09;6.53;;;3.60;;
73695;SDS011;62000;42.262;12.210;2022-07-18T01:42:36;8.27;;;3.65;;
73695;SDS011;62000;42.262;12.210;2022-07-18T01:45:02;8.18;;;4.43;;
73695;SDS011;62000;42.262;12.210;2022-07-18T01:47:29;7.00;;;4.13;;
73695;SDS011;62000;42.262;12.210;2022-07-18T01:49:55;6.93;;;3.85;;
73695;SDS011;62000;42.262;12.210;2022-07-18T01:52:21;7.75;;;3.83;;
73695;SDS011;62000;42.262;12.210;2022-07-18T01:54:47;11.77;;;4.35;;
73695;SDS011;62000;42.262;12.210;2022-07-18T01:57:13;7.70;;;4.05;;
73695;SDS011;62000;42.262;12.210;2022-07-18T01:59:40;8.00;;;4.03;;
73695;SDS011;62000;42.262;12.210;2022-07-18T02:02:06;10.70;;;4.88;;
73695;SDS011;62000;42.262;12.210;2022-07-18T02:04:32;9.88;;;4.18;;
73695;SDS011;62000;42.262;12.210;2022-07-18T02:07:38;7.00;;;3.53;;
73695;SDS011;62000;42.262;12.210;2022-07-18T02:10:07;6.32;;;3.97;;
73695;SDS011;62000;42.262;12.210;2022-07-18T02:12:41;6.72;;;3.40;;
73695;SDS011;62000;42.262;12.210;2022-07-18T02:15:09;6.97;;;3.45;;
73695;SDS011;62000;42.262;12.210;2022-07-18T02:17:36;5.95;;;3.58;;
73695;SDS011;62000;42.262;12.210;2022-07-18T02:20:05;6.40;;;3.17;;
73695;SDS011;62000;42.262;12.210;2022-07-18T02:22:35;6.80;;;3.33;;
73695;SDS011;62000;42.262;12.210;2022-07-18T02:25:02;6.78;;;3.53;;
73695;SDS011;62000;42.262;12.210;2022-07-18T02:27:29;6.63;;;3.75;;
73695;SDS011;62000;42.262;12.210;2022-07-18T02:29:55;6.57;;;4.03;;
73695;SDS011;62000;42.262;12.210;2022-07-18T02:32:21;8.60;;;3.47;;
73695;SDS011;62000;42.262;12.210;2022-07-18T02:34:48;6.53;;;3.38;;
73695;SDS011;62000;42.262;12.210;2022-07-18T02:37:15;6.22;;;3.42;;
73695;SDS011;62000;42.262;12.210;2022-07-18T02:39:42;6.22;;;3.65;;
73695;SDS011;62000;42.262;12.210;2022-07-18T02:42:08;7.32;;;4.20;;
73695;SDS011;62000;42.262;12.210;2022-07-18T02:44:34;8.52;;;3.47;;
73695;SDS011;62000;42.262;12.210;2022-07-18T02:47:01;7.35;;;3.22;;
73695;SDS011;62000;42.262;12.210;2022-07-18T02:49:28;8.07;;;3.53;;
73695;SDS011;62000;42.262;12.210;2022-07-18T02:54:28;6.00;;;3.08;;
73695;SDS011;62000;42.262;12.210;2022-07-18T02:56:57;5.68;;;3.20;;
73695;SDS011;62000;42.262;12.210;2022-07-18T02:59:23;6.03;;;3.17;;
73695;SDS011;62000;42.262;12.210;2022-07-18T03:01:51;6.25;;;3.30;;
73695;SDS011;62000;42.262;12.210;2022-07-18T03:04:18;8.43;;;3.45;;
73695;SDS011;62000;42.262;12.210;2022-07-18T03:06:45;7.43;;;3.35;;
73695;SDS011;62000;42.262;12.210;2022-07-18T03:09:13;6.97;;;3.42;;
73695;SDS011;62000;42.262;12.210;2022-07-18T03:11:40;7.45;;;3.53;;
73695;SDS011;62000;42.262;12.210;2022-07-18T03:14:06;7.38;;;3.33;;
73695;SDS011;62000;42.262;12.210;2022-07-18T03:18:59;6.47;;;3.45;;
73695;SDS011;62000;42.262;12.210;2022-07-18T03:21:26;6.68;;;3.38;;
73695;SDS011;62000;42.262;12.210;2022-07-18T03:23:54;5.57;;;3.42;;
73695;SDS011;62000;42.262;12.210;2022-07-18T03:26:21;8.85;;;3.17;;
73695;SDS011;62000;42.262;12.210;2022-07-18T03:28:48;7.72;;;3.38;;
73695;SDS011;62000;42.262;12.210;2022-07-18T03:31:14;7.05;;;3.40;;
73695;SDS011;62000;42.262;12.210;2022-07-18T03:33:40;7.10;;;3.55;;
73695;SDS011;62000;42.262;12.210;2022-07-18T03:36:06;6.97;;;3.28;;
73695;SDS011;62000;42.262;12.210;2022-07-18T03:38:32;7.80;;;3.83;;
73695;SDS011;62000;42.262;12.210;2022-07-18T03:40:58;6.45;;;3.08;;
73695;SDS011;62000;42.262;12.210;2022-07-18T03:43:24;6.85;;;3.97;;
73695;SDS011;62000;42.262;12.210;2022-07-18T03:45:50;6.93;;;3.67;;
73695;SDS011;62000;42.262;12.210;2022-07-18T03:48:16;8.98;;;4.10;;
73695;SDS011;62000;42.262;12.210;2022-07-18T03:50:42;8.82;;;3.78;;
73695;SDS011;62000;42.262;12.210;2022-07-18T03:53:08;8.55;;;3.67;;
73695;SDS011;62000;42.262;12.210;2022-07-18T03:55:34;8.20;;;3.75;;
73695;SDS011;62000;42.262;12.210;2022-07-18T03:58:00;6.90;;;3.65;;
73695;SDS011;62000;42.262;12.210;2022-07-18T04:00:27;12.07;;;3.83;;
73695;SDS011;62000;42.262;12.210;2022-07-18T04:02:53;7.47;;;3.45;;
73695;SDS011;62000;42.262;12.210;2022-07-18T04:05:19;6.75;;;4.05;;
73695;SDS011;62000;42.262;12.210;2022-07-18T04:07:46;7.40;;;3.75;;
73695;SDS011;62000;42.262;12.210;2022-07-18T04:10:12;8.13;;;3.50;;
73695;SDS011;62000;42.262;12.210;2022-07-18T04:12:45;6.55;;;3.40;;
73695;SDS011;62000;42.262;12.210;2022-07-18T04:15:18;6.70;;;3.20;;
73695;SDS011;62000;42.262;12.210;2022-07-18T04:17:47;7.57;;;3.55;;
73695;SDS011;62000;42.262;12.210;2022-07-18T04:20:14;8.73;;;3.28;;
73695;SDS011;62000;42.262;12.210;2022-07-18T04:22:55;6.35;;;3.00;;
73695;SDS011;62000;42.262;12.210;2022-07-18T04:25:26;8.77;;;3.22;;
73695;SDS011;62000;42.262;12.210;2022-07-18T04:28:02;7.10;;;3.67;;
73695;SDS011;62000;42.262;12.210;2022-07-18T04:30:30;8.98;;;3.58;;
73695;SDS011;62000;42.262;12.210;2022-07-18T04:32:56;7.88;;;3.42;;
73695;SDS011;62000;42.262;12.210;2022-07-18T04:35:23;6.82;;;3.45;;
73695;SDS011;62000;42.262;12.210;2022-07-18T04:37:50;5.53;;;3.25;;
73695;SDS011;62000;42.262;12.210;2022-07-18T04:42:42;9.43;;;3.28;;
73695;SDS011;62000;42.262;12.210;2022-07-18T04:45:08;6.88;;;3.53;;
73695;SDS011;62000;42.262;12.210;2022-07-18T04:47:35;7.00;;;3.20;;
73695;SDS011;62000;42.262;12.210;2022-07-18T04:50:01;7.75;;;3.20;;
73695;SDS011;62000;42.262;12.210;2022-07-18T04:52:39;7.40;;;3.40;;
73695;SDS011;62000;42.262;12.210;2022-07-18T04:55:11;6.95;;;3.30;;
73695;SDS011;62000;42.262;12.210;2022-07-18T04:57:38;9.10;;;3.72;;
73695;SDS011;62000;42.262;12.210;2022-07-18T05:00:06;6.05;;;3.17;;
73695;SDS011;62000;42.262;12.210;2022-07-18T05:02:42;8.20;;;3.70;;
73695;SDS011;62000;42.262;12.210;2022-07-18T05:05:12;7.60;;;3.55;;
73695;SDS011;62000;42.262;12.210;2022-07-18T05:07:40;5.55;;;3.20;;
73695;SDS011;62000;42.262;12.210;2022-07-18T05:10:08;6.30;;;3.35;;
73695;SDS011;62000;42.262;12.210;2022-07-18T05:12:37;7.47;;;3.63;;
73695;SDS011;62000;42.262;12.210;2022-07-18T05:15:05;5.78;;;3.22;;
73695;SDS011;62000;42.262;12.210;2022-07-18T05:17:35;7.38;;;3.60;;
73695;SDS011;62000;42.262;12.210;2022-07-18T05:20:02;9.05;;;3.60;;
73695;SDS011;62000;42.262;12.210;2022-07-18T05:22:31;6.03;;;3.33;;
73695;SDS011;62000;42.262;12.210;2022-07-18T05:24:58;9.48;;;4.40;;
73695;SDS011;62000;42.262;12.210;2022-07-18T05:27:25;7.10;;;3.78;;
73695;SDS011;62000;42.262;12.210;2022-07-18T05:29:51;6.65;;;3.90;;
73695;SDS011;62000;42.262;12.210;2022-07-18T05:32:18;9.02;;;4.10;;
73695;SDS011;62000;42.262;12.210;2022-07-18T05:34:44;6.65;;;3.42;;
73695;SDS011;62000;42.262;12.210;2022-07-18T05:37:10;10.45;;;3.85;;
73695;SDS011;62000;42.262;12.210;2022-07-18T05:39:36;8.57;;;3.92;;
73695;SDS011;62000;42.262;12.210;2022-07-18T05:42:02;10.38;;;4.18;;
73695;SDS011;62000;42.262;12.210;2022-07-18T05:44:29;7.43;;;3.95;;
73695;SDS011;62000;42.262;12.210;2022-07-18T05:46:55;8.38;;;4.45;;
73695;SDS011;62000;42.262;12.210;2022-07-18T05:49:21;7.80;;;4.20;;
73695;SDS011;62000;42.262;12.210;2022-07-18T05:51:47;9.95;;;4.25;;
73695;SDS011;62000;42.262;12.210;2022-07-18T05:54:13;7.65;;;4.45;;
73695;SDS011;62000;42.262;12.210;2022-07-18T05:56:44;7.82;;;4.03;;
73695;SDS011;62000;42.262;12.210;2022-07-18T05:59:14;8.48;;;4.30;;
73695;SDS011;62000;42.262;12.210;2022-07-18T06:01:42;7.22;;;4.05;;
73695;SDS011;62000;42.262;12.210;2022-07-18T06:04:08;10.23;;;3.83;;
73695;SDS011;62000;42.262;12.210;2022-07-18T06:06:34;9.18;;;3.97;;
73695;SDS011;62000;42.262;12.210;2022-07-18T06:09:01;7.97;;;4.10;;
73695;SDS011;62000;42.262;12.210;2022-07-18T06:11:28;14.02;;;4.55;;
73695;SDS011;62000;42.262;12.210;2022-07-18T06:13:54;9.52;;;4.18;;
73695;SDS011;62000;42.262;12.210;2022-07-18T06:16:20;8.80;;;3.75;;
73695;SDS011;62000;42.262;12.210;2022-07-18T06:18:46;9.77;;;4.22;;
73695;SDS011;62000;42.262;12.210;2022-07-18T06:21:12;7.88;;;4.05;;
73695;SDS011;62000;42.262;12.210;2022-07-18T06:23:38;10.00;;;4.15;;
73695;SDS011;62000;42.262;12.210;2022-07-18T06:26:05;9.55;;;4.32;;
73695;SDS011;62000;42.262;12.210;2022-07-18T06:28:31;11.15;;;4.20;;
73695;SDS011;62000;42.262;12.210;2022-07-18T06:30:57;8.88;;;3.75;;
73695;SDS011;62000;42.262;12.210;2022-07-18T06:33:23;10.50;;;4.38;;
73695;SDS011;62000;42.262;12.210;2022-07-18T06:35:49;13.43;;;4.68;;
73695;SDS011;62000;42.262;12.210;2022-07-18T06:38:16;10.15;;;3.97;;
73695;SDS011;62000;42.262;12.210;2022-07-18T06:40:42;11.00;;;4.18;;
73695;SDS011;62000;42.262;12.210;2022-07-18T06:43:09;17.90;;;4.20;;
73695;SDS011;62000;42.262;12.210;2022-07-18T06:45:35;8.43;;;4.18;;
73695;SDS011;62000;42.262;12.210;2022-07-18T06:48:02;10.40;;;4.97;;
73695;SDS011;62000;42.262;12.210;2022-07-18T06:50:28;11.25;;;4.72;;
73695;SDS011;62000;42.262;12.210;2022-07-18T06:52:54;12.77;;;4.30;;
73695;SDS011;62000;42.262;12.210;2022-07-18T06:55:20;10.55;;;4.53;;
73695;SDS011;62000;42.262;12.210;2022-07-18T06:57:46;12.98;;;5.15;;
73695;SDS011;62000;42.262;12.210;2022-07-18T07:00:14;8.50;;;4.60;;
73695;SDS011;62000;42.262;12.210;2022-07-18T07:02:44;8.07;;;4.40;;
73695;SDS011;62000;42.262;12.210;2022-07-18T07:05:15;9.98;;;4.00;;
73695;SDS011;62000;42.262;12.210;2022-07-18T07:07:43;10.38;;;4.47;;
73695;SDS011;62000;42.262;12.210;2022-07-18T07:10:10;12.27;;;4.22;;
73695;SDS011;62000;42.262;12.210;2022-07-18T07:15:07;9.10;;;4.53;;
73695;SDS011;62000;42.262;12.210;2022-07-18T07:17:35;10.60;;;4.15;;
73695;SDS011;62000;42.262;12.210;2022-07-18T07:20:03;8.32;;;3.75;;
73695;SDS011;62000;42.262;12.210;2022-07-18T07:22:31;8.55;;;3.92;;
73695;SDS011;62000;42.262;12.210;2022-07-18T07:25:11;8.75;;;3.85;;
73695;SDS011;62000;42.262;12.210;2022-07-18T10:41:11;8.70;;;2.95;;
73695;SDS011;62000;42.262;12.210;2022-07-18T10:43:39;7.40;;;2.92;;
73695;SDS011;62000;42.262;12.210;2022-07-18T10:46:07;4.82;;;2.28;;
73695;SDS011;62000;42.262;12.210;2022-07-18T10:51:12;8.10;;;2.33;;
73695;SDS011;62000;42.262;12.210;2022-07-18T11:30:35;5.60;;;2.40;;
73695;SDS011;62000;42.262;12.210;2022-07-18T11:33:02;7.55;;;2.20;;
73695;SDS011;62000;42.262;12.210;2022-07-18T11:35:29;7.22;;;2.25;;
73695;SDS011;62000;42.262;12.210;2022-07-18T11:37:55;7.28;;;1.92;;
73695;SDS011;62000;42.262;12.210;2022-07-18T12:13:43;6.18;;;2.10;;
73695;SDS011;62000;42.262;12.210;2022-07-18T17:19:25;8.02;;;2.60;;
73695;SDS011;62000;42.262;12.210;2022-07-18T17:43:55;6.05;;;2.80;;
73695;SDS011;62000;42.262;12.210;2022-07-18T17:46:21;6.07;;;3.28;;
73695;SDS011;62000;42.262;12.210;2022-07-18T17:48:53;8.38;;;3.40;;
73695;SDS011;62000;42.262;12.210;2022-07-18T17:51:21;9.32;;;3.45;;
73695;SDS011;62000;42.262;12.210;2022-07-18T17:53:47;8.82;;;3.25;;
73695;SDS011;62000;42.262;12.210;2022-07-18T17:56:14;7.88;;;3.40;;
73695;SDS011;62000;42.262;12.210;2022-07-18T17:58:42;8.00;;;3.15;;
73695;SDS011;62000;42.262;12.210;2022-07-18T18:01:09;7.22;;;2.80;;
73695;SDS011;62000;42.262;12.210;2022-07-18T18:03:43;7.30;;;3.38;;
73695;SDS011;62000;42.262;12.210;2022-07-18T18:06:10;11.80;;;3.60;;
73695;SDS011;62000;42.262;12.210;2022-07-18T18:08:36;10.32;;;3.38;;
73695;SDS011;62000;42.262;12.210;2022-07-18T18:11:02;10.40;;;3.63;;
73695;SDS011;62000;42.262;12.210;2022-07-18T18:13:28;10.65;;;3.88;;
73695;SDS011;62000;42.262;12.210;2022-07-18T18:15:54;9.80;;;3.60;;
73695;SDS011;62000;42.262;12.210;2022-07-18T18:18:20;6.78;;;3.30;;
73695;SDS011;62000;42.262;12.210;2022-07-18T18:20:46;7.13;;;3.40;;
73695;SDS011;62000;42.262;12.210;2022-07-18T18:23:13;8.48;;;3.70;;
73695;SDS011;62000;42.262;12.210;2022-07-18T18:25:39;8.82;;;3.35;;
73695;SDS011;62000;42.262;12.210;2022-07-18T18:28:05;8.77;;;3.30;;
73695;SDS011;62000;42.262;12.210;2022-07-18T18:30:31;7.32;;;3.25;;
73695;SDS011;62000;42.262;12.210;2022-07-18T18:32:58;12.80;;;3.25;;
73695;SDS011;62000;42.262;12.210;2022-07-18T18:35:27;8.63;;;3.10;;
73695;SDS011;62000;42.262;12.210;2022-07-18T18:37:53;10.45;;;3.35;;
73695;SDS011;62000;42.262;12.210;2022-07-18T18:40:20;7.90;;;3.72;;
73695;SDS011;62000;42.262;12.210;2022-07-18T18:42:46;9.52;;;3.50;;
73695;SDS011;62000;42.262;12.210;2022-07-18T18:45:13;8.07;;;2.85;;
73695;SDS011;62000;42.262;12.210;2022-07-18T18:47:39;7.70;;;3.60;;
73695;SDS011;62000;42.262;12.210;2022-07-18T18:50:06;10.30;;;3.45;;
73695;SDS011;62000;42.262;12.210;2022-07-18T18:52:34;9.43;;;3.50;;
73695;SDS011;62000;42.262;12.210;2022-07-18T18:55:03;8.75;;;3.88;;
73695;SDS011;62000;42.262;12.210;2022-07-18T18:57:32;11.30;;;3.95;;
73695;SDS011;62000;42.262;12.210;2022-07-18T18:59:58;9.55;;;3.92;;
73695;SDS011;62000;42.262;12.210;2022-07-18T19:02:25;9.38;;;3.95;;
73695;SDS011;62000;42.262;12.210;2022-07-18T19:04:51;13.48;;;3.83;;
73695;SDS011;62000;42.262;12.210;2022-07-18T19:07:17;12.32;;;3.95;;
73695;SDS011;62000;42.262;12.210;2022-07-18T19:09:43;7.43;;;3.53;;
73695;SDS011;62000;42.262;12.210;2022-07-18T19:12:10;8.98;;;3.35;;
73695;SDS011;62000;42.262;12.210;2022-07-18T19:14:36;8.25;;;3.25;;
73695;SDS011;62000;42.262;12.210;2022-07-18T19:17:03;8.15;;;3.10;;
73695;SDS011;62000;42.262;12.210;2022-07-18T19:19:29;8.85;;;3.20;;
73695;SDS011;62000;42.262;12.210;2022-07-18T19:21:55;7.10;;;3.40;;
73695;SDS011;62000;42.262;12.210;2022-07-18T19:24:24;9.63;;;2.97;;
73695;SDS011;62000;42.262;12.210;2022-07-18T19:26:54;6.35;;;3.00;;
73695;SDS011;62000;42.262;12.210;2022-07-18T19:29:23;6.97;;;3.42;;
73695;SDS011;62000;42.262;12.210;2022-07-18T19:31:52;10.55;;;3.53;;
73695;SDS011;62000;42.262;12.210;2022-07-18T19:34:20;12.48;;;4.00;;
73695;SDS011;62000;42.262;12.210;2022-07-18T19:36:50;11.40;;;3.83;;
73695;SDS011;62000;42.262;12.210;2022-07-18T19:39:22;8.77;;;3.65;;
73695;SDS011;62000;42.262;12.210;2022-07-18T19:41:50;8.45;;;3.30;;
73695;SDS011;62000;42.262;12.210;2022-07-18T19:44:19;5.97;;;3.30;;
73695;SDS011;62000;42.262;12.210;2022-07-18T19:46:47;7.78;;;3.13;;
73695;SDS011;62000;42.262;12.210;2022-07-18T19:49:16;9.00;;;3.05;;
73695;SDS011;62000;42.262;12.210;2022-07-18T19:51:46;6.75;;;3.13;;
73695;SDS011;62000;42.262;12.210;2022-07-18T19:54:16;9.25;;;3.60;;
73695;SDS011;62000;42.262;12.210;2022-07-18T19:56:44;6.70;;;3.03;;
73695;SDS011;62000;42.262;12.210;2022-07-18T19:59:15;7.47;;;3.10;;
73695;SDS011;62000;42.262;12.210;2022-07-18T20:01:43;8.60;;;3.33;;
73695;SDS011;62000;42.262;12.210;2022-07-18T20:04:12;8.52;;;3.72;;
73695;SDS011;62000;42.262;12.210;2022-07-18T20:06:44;9.45;;;3.33;;
73695;SDS011;62000;42.262;12.210;2022-07-18T20:09:12;7.60;;;3.30;;
73695;SDS011;62000;42.262;12.210;2022-07-18T20:11:43;5.85;;;3.47;;
73695;SDS011;62000;42.262;12.210;2022-07-18T20:14:13;7.40;;;3.05;;
73695;SDS011;62000;42.262;12.210;2022-07-18T20:16:39;8.00;;;3.25;;
73695;SDS011;62000;42.262;12.210;2022-07-18T20:19:08;7.57;;;3.60;;
73695;SDS011;62000;42.262;12.210;2022-07-18T20:21:38;7.78;;;3.03;;
73695;SDS011;62000;42.262;12.210;2022-07-18T20:24:08;5.50;;;3.28;;
73695;SDS011;62000;42.262;12.210;2022-07-18T20:26:37;7.10;;;3.53;;
73695;SDS011;62000;42.262;12.210;2022-07-18T20:29:06;5.85;;;3.08;;
73695;SDS011;62000;42.262;12.210;2022-07-18T20:31:36;9.90;;;4.03;;
73695;SDS011;62000;42.262;12.210;2022-07-18T20:34:05;7.15;;;3.60;;
73695;SDS011;62000;42.262;12.210;2022-07-18T20:36:34;6.82;;;3.65;;
73695;SDS011;62000;42.262;12.210;2022-07-18T20:39:02;6.72;;;3.30;;
73695;SDS011;62000;42.262;12.210;2022-07-18T20:41:30;10.30;;;3.90;;
73695;SDS011;62000;42.262;12.210;2022-07-18T20:43:58;9.55;;;3.38;;
73695;SDS011;62000;42.262;12.210;2022-07-18T20:46:27;6.88;;;3.42;;
73695;SDS011;62000;42.262;12.210;2022-07-18T20:48:57;6.68;;;3.00;;
73695;SDS011;62000;42.262;12.210;2022-07-18T20:51:25;7.65;;;3.28;;
73695;SDS011;62000;42.262;12.210;2022-07-18T20:53:54;6.63;;;3.10;;
73695;SDS011;62000;42.262;12.210;2022-07-18T20:56:23;6.20;;;3.28;;
73695;SDS011;62000;42.262;12.210;2022-07-18T20:58:55;7.35;;;3.20;;
73695;SDS011;62000;42.262;12.210;2022-07-18T21:01:24;7.15;;;2.95;;
73695;SDS011;62000;42.262;12.210;2022-07-18T21:03:53;6.35;;;2.83;;
73695;SDS011;62000;42.262;12.210;2022-07-18T21:06:24;7.80;;;3.00;;
73695;SDS011;62000;42.262;12.210;2022-07-18T21:08:56;8.10;;;3.00;;
73695;SDS011;62000;42.262;12.210;2022-07-18T21:11:27;7.03;;;3.38;;
73695;SDS011;62000;42.262;12.210;2022-07-18T21:13:57;7.25;;;3.38;;
73695;SDS011;62000;42.262;12.210;2022-07-18T21:16:23;6.60;;;3.42;;
73695;SDS011;62000;42.262;12.210;2022-07-18T21:18:49;7.47;;;2.95;;
73695;SDS011;62000;42.262;12.210;2022-07-18T21:21:15;6.20;;;3.10;;
73695;SDS011;62000;42.262;12.210;2022-07-18T21:23:42;8.35;;;3.55;;
73695;SDS011;62000;42.262;12.210;2022-07-18T21:26:08;7.95;;;3.20;;
73695;SDS011;62000;42.262;12.210;2022-07-18T21:28:34;8.40;;;3.92;;
73695;SDS011;62000;42.262;12.210;2022-07-18T21:31:01;8.73;;;3.40;;
73695;SDS011;62000;42.262;12.210;2022-07-18T21:33:27;8.40;;;3.67;;
73695;SDS011;62000;42.262;12.210;2022-07-18T21:35:53;7.53;;;3.70;;
73695;SDS011;62000;42.262;12.210;2022-07-18T21:38:19;5.78;;;2.90;;
73695;SDS011;62000;42.262;12.210;2022-07-18T21:40:45;8.23;;;3.65;;
73695;SDS011;62000;42.262;12.210;2022-07-18T21:43:11;6.22;;;3.92;;
73695;SDS011;62000;42.262;12.210;2022-07-18T21:45:37;8.23;;;3.65;;
73695;SDS011;62000;42.262;12.210;2022-07-18T21:48:03;9.35;;;3.85;;
73695;SDS011;62000;42.262;12.210;2022-07-18T21:50:29;8.43;;;4.22;;
73695;SDS011;62000;42.262;12.210;2022-07-18T21:52:55;8.70;;;3.15;;
73695;SDS011;62000;42.262;12.210;2022-07-18T21:55:25;8.45;;;3.03;;
73695;SDS011;62000;42.262;12.210;2022-07-18T21:57:51;8.65;;;2.90;;
73695;SDS011;62000;42.262;12.210;2022-07-18T22:00:17;7.00;;;2.80;;
73695;SDS011;62000;42.262;12.210;2022-07-18T22:02:43;9.30;;;3.00;;
73695;SDS011;62000;42.262;12.210;2022-07-18T22:05:09;5.30;;;2.63;;
73695;SDS011;62000;42.262;12.210;2022-07-18T22:07:35;6.90;;;2.70;;
73695;SDS011;62000;42.262;12.210;2022-07-18T22:10:02;6.68;;;3.10;;
73695;SDS011;62000;42.262;12.210;2022-07-18T22:12:28;10.20;;;3.33;;
73695;SDS011;62000;42.262;12.210;2022-07-18T22:14:54;7.43;;;3.00;;
73695;SDS011;62000;42.262;12.210;2022-07-18T22:17:20;8.25;;;3.10;;
73695;SDS011;62000;42.262;12.210;2022-07-18T22:19:47;6.43;;;3.08;;
73695;SDS011;62000;42.262;12.210;2022-07-18T22:22:13;10.68;;;3.78;;
73695;SDS011;62000;42.262;12.210;2022-07-18T22:24:42;7.57;;;3.35;;
73695;SDS011;62000;42.262;12.210;2022-07-18T22:27:08;9.48;;;3.45;;
73695;SDS011;62000;42.262;12.210;2022-07-18T22:29:34;8.48;;;3.60;;
73695;SDS011;62000;42.262;12.210;2022-07-18T22:32:00;7.72;;;3.45;;
73695;SDS011;62000;42.262;12.210;2022-07-18T22:34:26;8.63;;;3.50;;
73695;SDS011;62000;42.262;12.210;2022-07-18T22:36:52;7.65;;;3.50;;
73695;SDS011;62000;42.262;12.210;2022-07-18T22:39:18;6.25;;;3.67;;
73695;SDS011;62000;42.262;12.210;2022-07-18T22:41:47;7.28;;;3.40;;
73695;SDS011;62000;42.262;12.210;2022-07-18T22:44:14;9.23;;;3.72;;
73695;SDS011;62000;42.262;12.210;2022-07-18T22:46:45;6.93;;;3.80;;
73695;SDS011;62000;42.262;12.210;2022-07-18T22:49:13;6.18;;;3.45;;
73695;SDS011;62000;42.262;12.210;2022-07-18T22:51:43;6.80;;;3.03;;
73695;SDS011;62000;42.262;12.210;2022-07-18T22:54:13;7.55;;;3.40;;
73695;SDS011;62000;42.262;12.210;2022-07-18T22:56:41;6.80;;;3.33;;
73695;SDS011;62000;42.262;12.210;2022-07-18T22:59:10;6.40;;;3.28;;
73695;SDS011;62000;42.262;12.210;2022-07-18T23:01:39;7.55;;;3.35;;
73695;SDS011;62000;42.262;12.210;2022-07-18T23:04:07;6.95;;;2.83;;
73695;SDS011;62000;42.262;12.210;2022-07-18T23:06:32;7.65;;;3.13;;
73695;SDS011;62000;42.262;12.210;2022-07-18T23:08:58;6.78;;;3.00;;
73695;SDS011;62000;42.262;12.210;2022-07-18T23:11:24;7.03;;;3.40;;
73695;SDS011;62000;42.262;12.210;2022-07-18T23:13:50;8.27;;;2.88;;
73695;SDS011;62000;42.262;12.210;2022-07-18T23:16:16;6.65;;;3.10;;
73695;SDS011;62000;42.262;12.210;2022-07-18T23:18:42;7.63;;;3.03;;
73695;SDS011;62000;42.262;12.210;2022-07-18T23:21:08;7.25;;;3.30;;
73695;SDS011;62000;42.262;12.210;2022-07-18T23:23:34;8.70;;;4.18;;
73695;SDS011;62000;42.262;12.210;2022-07-18T23:26:00;7.30;;;3.85;;
73695;SDS011;62000;42.262;12.210;2022-07-18T23:28:26;7.50;;;3.78;;
73695;SDS011;62000;42.262;12.210;2022-07-18T23:30:52;8.30;;;4.05;;
73695;SDS011;62000;42.262;12.210;2022-07-18T23:33:18;10.82;;;4.28;;
73695;SDS011;62000;42.262;12.210;2022-07-18T23:35:44;10.43;;;4.50;;
73695;SDS011;62000;42.262;12.210;2022-07-18T23:38:10;8.60;;;3.90;;
73695;SDS011;62000;42.262;12.210;2022-07-18T23:40:37;6.40;;;3.45;;
73695;SDS011;62000;42.262;12.210;2022-07-18T23:43:03;7.40;;;3.45;;
73695;SDS011;62000;42.262;12.210;2022-07-18T23:45:29;7.22;;;4.38;;
73695;SDS011;62000;42.262;12.210;2022-07-18T23:47:55;6.97;;;4.50;;
73695;SDS011;62000;42.262;12.210;2022-07-18T23:50:21;8.40;;;4.35;;
73695;SDS011;62000;42.262;12.210;2022-07-18T23:52:47;5.72;;;3.58;;
73695;SDS011;62000;42.262;12.210;2022-07-18T23:55:14;8.23;;;4.00;;
73695;SDS011;62000;42.262;12.210;2022-07-18T23:57:42;7.05;;;3.85;;
